Latest Conditions
At L.F.Wade Int. Airport
Recorded at 9:55 pm
Few Clouds
Temp.: 
20°C/68°F
Humidity: 
62%
Wind: 
N 8KT
or 9mph
UV Index: 
0
Island Observations
 
Observations
Thursday, December 03, 2020

Observations are in local time and taken at least once an hour, or upon the start and end of specified events such as showers and thunderstorms.

Time Sky / Weather Wind Speed/Gusts Temp. R.H. Pressure
     knots (mph)  °C (°F)  %  mb / "Hg
 21:55 Few Clouds  N 8/0 (9/0) 20(68) 62 1023 / 30.22
 20:55 Few Clouds  N 7/0 (8/0) 20(68) 60 1023 / 30.22
 19:55 Few Clouds  N 9/0 (10/0) 20(68) 64 1023 / 30.21
 18:55 Partly Cloudy  N 9/0 (10/0) 20(68) 59 1023 / 30.20
 17:55 Partly Cloudy  N 9/0 (10/0) 20(68) 56 1022 / 30.18
 16:55 Mostly Cloudy  N 9/0 (10/0) 20(69) 57 1022 / 30.17
 15:55 Partly Cloudy  N 11/0 (13/0) 21(70) 61 1021 / 30.16
 14:55 Mostly Cloudy  N 12/0 (14/0) 21(70) 61 1021 / 30.15
 13:55 Mostly Cloudy  N 12/0 (14/0) 21(71) 62 1021 / 30.15
 12:55 Mostly Cloudy  N 13/0 (15/0) 21(70) 62 1021 / 30.15
 11:55 Mostly Cloudy Showers NNE 6/0 (7/0) 20(68) 69 1022 / 30.17
 11:28 Mostly Cloudy Showers NE 8/0 (9/0) 18(65) 84 1022 / 30.17
 11:08 Mostly Cloudy Showers NE 11/0 (13/0) 18(65) 78 1022 / 30.18
 10:55 Mostly Cloudy Showers N 12/0 (14/0) 20(67) 76 1022 / 30.17
 09:55 Partly Cloudy  NNW 8/0 (9/0) 22(71) 55 1022 / 30.17
 08:55 Partly Cloudy  NNW 9/0 (10/0) 21(70) 59 1021 / 30.15
 07:55 Partly Cloudy  N 8/0 (9/0) 20(69) 56 1020 / 30.13
 06:55 Mostly Cloudy  NNW 6/0 (7/0) 20(69) 57 1020 / 30.12
 05:55 Mostly Cloudy Showers NNW 9/0 (10/0) 20(68) 57 1019 / 30.10
 04:55 Mostly Cloudy  NW 10/0 (12/0) 20(68) 67 1019 / 30.09
 03:55 Partly Cloudy  NW 10/0 (12/0) 20(68) 60 1019 / 30.09
 02:55 Few Clouds  NNW 7/0 (8/0) 20(68) 60 1019 / 30.09
 01:55 Few Clouds  NW 11/0 (13/0) 20(68) 67 1019 / 30.09
 00:55 Few Clouds  NW 6/0 (7/0) 20(68) 53 1019 / 30.09
 23:55 Few Clouds  NNW 5/0 (6/0) 20(68) 54 1019 / 30.10
 22:55 Few Clouds  NW 8/0 (9/0) 21(69) 57 1019 / 30.10
 21:55 Few Clouds  NW 5/0 (6/0) 21(69) 59 1019 / 30.10
 20:55 Few Clouds  NW 8/0 (9/0) 21(69) 56 1019 / 30.09
 19:55 Partly Cloudy  NW 8/0 (9/0) 21(70) 58 1019 / 30.08
 18:55 Partly Cloudy  NNW 9/0 (10/0) 21(70) 62 1018 / 30.07
 17:55 Mostly Cloudy  NNW 9/0 (10/0) 21(70) 67 1018 / 30.05
 16:55 Mostly Cloudy  NNW 10/0 (12/0) 21(70) 70 1017 / 30.04
 15:55 Partly Cloudy  NNW 10/0 (12/0) 22(71) 73 1017 / 30.02
 14:55 Mostly Cloudy  NNW 11/0 (13/0) 22(72) 73 1016 / 30.01
 13:55 Mostly Cloudy  NNW 9/0 (10/0) 22(72) 71 1016 / 30.01
 12:55 Mostly Cloudy  NNW 12/0 (14/0) 22(71) 78 1016 / 30.01
 12:07 Mostly Cloudy  NNW 10/0 (12/0) 21(70) 83 1017 / 30.02
 11:55 Mostly Cloudy  NNW 8/0 (9/0) 21(69) 88 1017 / 30.03
 11:41 Overcast  NNW 9/0 (10/0) 20(68) 92 1017 / 30.03
 11:16 Overcast Drizzle NNW 6/0 (7/0) 20(68) 95 1017 / 30.04
 10:55 Overcast Rain NNW 8/0 (9/0) 20(67) 97 1017 / 30.04
 10:41 Overcast Rain NNW 8/0 (9/0) 20(68) 98 1017 / 30.04
 10:24 Overcast Showers WNW 8/0 (9/0) 20(68) 98 1017 / 30.04
 09:55 Mostly Cloudy  WSW 7/0 (8/0) 21(70) 96 1017 / 30.04
 09:41 Overcast  SW 7/0 (8/0) 21(69) 97 1017 / 30.04
 09:12 Overcast  SSW 8/0 (9/0) 20(69) 98 1017 / 30.03
 08:55 Overcast Rain SSW 12/0 (14/0) 20(68) 98 1017 / 30.02
 08:46 Overcast Rain SSW 13/0 (15/0) 20(68) 98 1017 / 30.02
 08:32 Overcast Rain S 12/0 (14/0) 20(68) 99 1016 / 30.01
 08:08 Overcast Rain S 10/0 (12/0) 20(69) 97 1016 / 30.01
 07:55 Overcast Rain SW 6/0 (7/0) 20(69) 93 1016 / 30.00
 07:36 Mostly Cloudy Rain SW 8/0 (9/0) 20(69) 88 1016 / 30.00
 07:17 Mostly Cloudy Showers SSW 12/0 (14/0) 21(70) 88 1016 / 29.99
 06:55 Mostly Cloudy Showers S 11/0 (13/0) 22(72) 80 1016 / 29.99
 05:55 Mostly Cloudy Showers S 12/0 (14/0) 22(71) 79 1015 / 29.98
 04:55 Mostly Cloudy  S 12/0 (14/0) 22(71) 76 1015 / 29.98
 03:55 Mostly Cloudy  S 12/0 (14/0) 22(71) 75 1016 / 29.99
 02:55 Mostly Cloudy  S 13/0 (15/0) 22(71) 74 1016 / 30.00
 01:55 Mostly Cloudy  S 12/0 (14/0) 22(71) 72 1017 / 30.02
 00:55 Partly Cloudy  SSE 12/0 (14/0) 22(71) 74 1017 / 30.03
 23:55 Mostly Cloudy  SSE 14/0 (16/0) 22(71) 74 1017 / 30.04
 22:55 Overcast  SSE 12/0 (14/0) 22(71) 73 1018 / 30.05
 21:55 Mostly Cloudy  S 12/0 (14/0) 22(71) 70 1018 / 30.07
 20:55 Mostly Cloudy  SSE 12/0 (14/0) 22(71) 71 1018 / 30.06
 19:55 Mostly Cloudy  SSE 12/0 (14/0) 22(71) 72 1018 / 30.05
 18:55 Mostly Cloudy  SSE 13/0 (15/0) 22(71) 70 1018 / 30.05
 17:55 Mostly Cloudy  SSE 15/0 (17/0) 22(71) 70 1018 / 30.05
 16:55 Mostly Cloudy  SSE 13/0 (15/0) 22(71) 71 1018 / 30.05
 15:55 Mostly Cloudy  SSE 13/0 (15/0) 22(72) 70 1018 / 30.06
 14:55 Mostly Cloudy  SE 14/0 (16/0) 23(73) 69 1018 / 30.07
 13:55 Mostly Cloudy  SE 14/0 (16/0) 23(73) 67 1019 / 30.08
 12:55 Mostly Cloudy Showers SSE 13/0 (15/0) 23(74) 67 1019 / 30.10
 11:55 Mostly Cloudy Showers SE 15/0 (17/0) 23(73) 67 1020 / 30.13
 11:35 Mostly Cloudy Showers SSE 14/0 (16/0) 23(73) 68 1021 / 30.14
 11:20 Mostly Cloudy Showers SSE 12/0 (14/0) 22(71) 71 1021 / 30.14
 10:55 Mostly Cloudy Showers SE 13/0 (15/0) 22(72) 74 1021 / 30.15
 09:55 Partly Cloudy  SE 13/0 (15/0) 22(72) 69 1021 / 30.16
 08:55 Mostly Cloudy Showers SE 14/0 (16/0) 22(72) 71 1021 / 30.15
 07:55 Partly Cloudy Showers SE 14/0 (16/0) 21(71) 74 1020 / 30.13
 06:55 Partly Cloudy Showers SE 15/0 (17/0) 21(70) 75 1020 / 30.12
 05:55 Mostly Cloudy Showers SSE 14/0 (16/0) 21(70) 74 1020 / 30.11
 04:55 Mostly Cloudy Showers SE 14/0 (16/0) 21(70) 75 1020 / 30.12
 03:55 Mostly Cloudy  SSE 11/0 (13/0) 21(70) 70 1020 / 30.13
 02:55 Mostly Cloudy Showers SSE 13/0 (15/0) 21(70) 73 1021 / 30.14
 01:55 Mostly Cloudy Showers SSE 13/0 (15/0) 21(69) 76 1021 / 30.15
 00:55 Partly Cloudy  SE 15/0 (17/0) 21(70) 68 1021 / 30.15
 23:55 Partly Cloudy Showers SE 14/0 (16/0) 21(70) 67 1022 / 30.17
 22:55 Mostly Cloudy  SE 14/0 (16/0) 21(71) 66 1022 / 30.18
 21:55 Partly Cloudy  SE 14/0 (16/0) 21(70) 67 1022 / 30.19
 20:55 Partly Cloudy  SE 14/0 (16/0) 21(70) 65 1023 / 30.20
 19:55 Partly Cloudy  SE 14/0 (16/0) 21(70) 64 1022 / 30.19
 18:55 Partly Cloudy  SE 14/0 (16/0) 21(70) 63 1022 / 30.18
 17:55 Few Clouds  ESE 13/0 (15/0) 21(70) 62 1022 / 30.17
 16:55 Partly Cloudy  ESE 14/0 (16/0) 21(70) 63 1021 / 30.16
 15:55 Partly Cloudy  SE 16/0 (18/0) 22(71) 59 1021 / 30.15
 14:55 Few Clouds  ESE 17/0 (20/0) 22(72) 59 1021 / 30.15
 13:55 Partly Cloudy  ESE 15/0 (17/0) 22(71) 62 1022 / 30.17
 12:55 Mostly Cloudy  ESE 16/0 (18/0) 22(72) 59 1022 / 30.19
 11:55 Partly Cloudy  ESE 15/0 (17/0) 23(74) 53 1023 / 30.21
 10:55 Partly Cloudy  ESE 18/0 (21/0) 22(72) 56 1024 / 30.23
Island AWOS